sensor_id;sensor_type;location;lat;lon;timestamp;P1;durP1;ratioP1;P2;durP2;ratioP2
15155;SDS011;7678;50.058;8.306;2022-10-17T00:01:10;8.27;;;5.60;;
15155;SDS011;7678;50.058;8.306;2022-10-17T00:03:39;6.07;;;5.17;;
15155;SDS011;7678;50.058;8.306;2022-10-17T00:06:08;5.80;;;5.10;;
15155;SDS011;7678;50.058;8.306;2022-10-17T00:08:40;5.97;;;5.20;;
15155;SDS011;7678;50.058;8.306;2022-10-17T00:11:12;12.03;;;6.00;;
15155;SDS011;7678;50.058;8.306;2022-10-17T00:13:43;8.53;;;5.87;;
15155;SDS011;7678;50.058;8.306;2022-10-17T00:16:13;7.40;;;6.10;;
15155;SDS011;7678;50.058;8.306;2022-10-17T00:18:44;10.87;;;5.97;;
15155;SDS011;7678;50.058;8.306;2022-10-17T00:21:16;7.70;;;5.80;;
15155;SDS011;7678;50.058;8.306;2022-10-17T00:23:45;8.17;;;5.80;;
15155;SDS011;7678;50.058;8.306;2022-10-17T00:26:14;7.63;;;5.93;;
15155;SDS011;7678;50.058;8.306;2022-10-17T00:28:44;6.93;;;6.10;;
15155;SDS011;7678;50.058;8.306;2022-10-17T00:31:15;7.77;;;5.80;;
15155;SDS011;7678;50.058;8.306;2022-10-17T00:33:46;8.67;;;5.57;;
15155;SDS011;7678;50.058;8.306;2022-10-17T00:36:15;8.80;;;5.53;;
15155;SDS011;7678;50.058;8.306;2022-10-17T00:38:45;7.07;;;5.60;;
15155;SDS011;7678;50.058;8.306;2022-10-17T00:41:17;6.73;;;5.57;;
15155;SDS011;7678;50.058;8.306;2022-10-17T00:43:48;9.43;;;5.60;;
15155;SDS011;7678;50.058;8.306;2022-10-17T00:46:19;6.00;;;5.37;;
15155;SDS011;7678;50.058;8.306;2022-10-17T00:48:49;7.33;;;5.80;;
15155;SDS011;7678;50.058;8.306;2022-10-17T00:51:22;10.23;;;5.97;;
15155;SDS011;7678;50.058;8.306;2022-10-17T00:53:55;8.83;;;6.07;;
15155;SDS011;7678;50.058;8.306;2022-10-17T00:56:23;11.57;;;6.00;;
15155;SDS011;7678;50.058;8.306;2022-10-17T00:58:52;7.33;;;5.87;;
15155;SDS011;7678;50.058;8.306;2022-10-17T01:01:23;7.30;;;5.60;;
15155;SDS011;7678;50.058;8.306;2022-10-17T01:03:51;8.67;;;6.13;;
15155;SDS011;7678;50.058;8.306;2022-10-17T01:06:19;10.73;;;6.70;;
15155;SDS011;7678;50.058;8.306;2022-10-17T01:08:47;9.73;;;6.50;;
15155;SDS011;7678;50.058;8.306;2022-10-17T01:11:26;9.33;;;6.60;;
15155;SDS011;7678;50.058;8.306;2022-10-17T01:14:00;7.83;;;6.87;;
15155;SDS011;7678;50.058;8.306;2022-10-17T01:16:37;10.57;;;6.50;;
15155;SDS011;7678;50.058;8.306;2022-10-17T01:19:12;9.53;;;6.17;;
15155;SDS011;7678;50.058;8.306;2022-10-17T01:22:00;7.07;;;5.77;;
15155;SDS011;7678;50.058;8.306;2022-10-17T01:24:45;9.13;;;5.77;;
15155;SDS011;7678;50.058;8.306;2022-10-17T01:27:42;7.73;;;6.40;;
15155;SDS011;7678;50.058;8.306;2022-10-17T01:33:30;9.10;;;6.03;;
15155;SDS011;7678;50.058;8.306;2022-10-17T01:36:07;7.20;;;5.73;;
15155;SDS011;7678;50.058;8.306;2022-10-17T01:38:41;9.47;;;6.17;;
15155;SDS011;7678;50.058;8.306;2022-10-17T01:41:14;10.90;;;6.13;;
15155;SDS011;7678;50.058;8.306;2022-10-17T01:43:52;9.47;;;6.33;;
15155;SDS011;7678;50.058;8.306;2022-10-17T01:46:27;8.30;;;6.60;;
15155;SDS011;7678;50.058;8.306;2022-10-17T01:49:00;7.10;;;5.47;;
15155;SDS011;7678;50.058;8.306;2022-10-17T01:51:32;7.80;;;5.93;;
15155;SDS011;7678;50.058;8.306;2022-10-17T01:54:04;7.47;;;5.70;;
15155;SDS011;7678;50.058;8.306;2022-10-17T01:56:37;7.87;;;6.50;;
15155;SDS011;7678;50.058;8.306;2022-10-17T01:59:08;8.47;;;6.30;;
15155;SDS011;7678;50.058;8.306;2022-10-17T02:01:42;6.90;;;5.90;;
15155;SDS011;7678;50.058;8.306;2022-10-17T02:04:12;6.73;;;5.50;;
15155;SDS011;7678;50.058;8.306;2022-10-17T02:06:41;8.80;;;6.00;;
15155;SDS011;7678;50.058;8.306;2022-10-17T02:09:16;10.87;;;6.43;;
15155;SDS011;7678;50.058;8.306;2022-10-17T02:11:49;11.50;;;5.63;;
15155;SDS011;7678;50.058;8.306;2022-10-17T02:14:28;14.50;;;7.23;;
15155;SDS011;7678;50.058;8.306;2022-10-17T02:17:07;10.93;;;6.97;;
15155;SDS011;7678;50.058;8.306;2022-10-17T02:19:46;10.80;;;7.23;;
15155;SDS011;7678;50.058;8.306;2022-10-17T02:22:24;7.10;;;6.40;;
15155;SDS011;7678;50.058;8.306;2022-10-17T02:25:02;10.60;;;6.70;;
15155;SDS011;7678;50.058;8.306;2022-10-17T02:27:39;8.27;;;6.23;;
15155;SDS011;7678;50.058;8.306;2022-10-17T02:30:13;8.53;;;6.73;;
15155;SDS011;7678;50.058;8.306;2022-10-17T02:32:51;8.97;;;6.20;;
15155;SDS011;7678;50.058;8.306;2022-10-17T02:35:26;8.47;;;6.00;;
15155;SDS011;7678;50.058;8.306;2022-10-17T02:37:58;10.17;;;6.50;;
15155;SDS011;7678;50.058;8.306;2022-10-17T02:40:28;11.37;;;6.53;;
15155;SDS011;7678;50.058;8.306;2022-10-17T02:42:58;8.97;;;6.60;;
15155;SDS011;7678;50.058;8.306;2022-10-17T02:45:28;8.97;;;6.70;;
15155;SDS011;7678;50.058;8.306;2022-10-17T02:48:03;13.73;;;6.87;;
15155;SDS011;7678;50.058;8.306;2022-10-17T02:50:37;9.97;;;6.77;;
15155;SDS011;7678;50.058;8.306;2022-10-17T02:53:16;13.80;;;6.03;;
15155;SDS011;7678;50.058;8.306;2022-10-17T02:55:52;6.67;;;5.70;;
15155;SDS011;7678;50.058;8.306;2022-10-17T02:58:25;7.80;;;6.53;;
15155;SDS011;7678;50.058;8.306;2022-10-17T03:00:58;7.80;;;6.63;;
15155;SDS011;7678;50.058;8.306;2022-10-17T03:03:29;10.03;;;6.70;;
15155;SDS011;7678;50.058;8.306;2022-10-17T03:05:58;8.17;;;6.17;;
15155;SDS011;7678;50.058;8.306;2022-10-17T03:08:26;13.20;;;5.80;;
15155;SDS011;7678;50.058;8.306;2022-10-17T03:10:55;9.60;;;5.90;;
15155;SDS011;7678;50.058;8.306;2022-10-17T03:13:23;7.70;;;5.63;;
15155;SDS011;7678;50.058;8.306;2022-10-17T03:15:51;9.90;;;6.37;;
15155;SDS011;7678;50.058;8.306;2022-10-17T03:18:19;7.97;;;5.93;;
15155;SDS011;7678;50.058;8.306;2022-10-17T03:20:48;8.23;;;6.30;;
15155;SDS011;7678;50.058;8.306;2022-10-17T03:23:17;8.83;;;6.90;;
15155;SDS011;7678;50.058;8.306;2022-10-17T03:25:45;11.87;;;6.50;;
15155;SDS011;7678;50.058;8.306;2022-10-17T03:28:13;6.30;;;5.70;;
15155;SDS011;7678;50.058;8.306;2022-10-17T03:30:41;12.53;;;7.00;;
15155;SDS011;7678;50.058;8.306;2022-10-17T03:33:09;7.83;;;6.47;;
15155;SDS011;7678;50.058;8.306;2022-10-17T03:35:37;7.90;;;6.40;;
15155;SDS011;7678;50.058;8.306;2022-10-17T03:38:07;8.90;;;6.83;;
15155;SDS011;7678;50.058;8.306;2022-10-17T03:40:35;9.37;;;6.83;;
15155;SDS011;7678;50.058;8.306;2022-10-17T03:43:03;7.20;;;6.50;;
15155;SDS011;7678;50.058;8.306;2022-10-17T03:45:31;9.57;;;6.27;;
15155;SDS011;7678;50.058;8.306;2022-10-17T03:48:00;10.23;;;7.00;;
15155;SDS011;7678;50.058;8.306;2022-10-17T03:50:28;12.17;;;7.03;;
15155;SDS011;7678;50.058;8.306;2022-10-17T03:52:56;7.83;;;6.43;;
15155;SDS011;7678;50.058;8.306;2022-10-17T03:55:25;8.97;;;7.17;;
15155;SDS011;7678;50.058;8.306;2022-10-17T03:57:54;10.10;;;7.20;;
15155;SDS011;7678;50.058;8.306;2022-10-17T04:00:22;7.50;;;6.40;;
15155;SDS011;7678;50.058;8.306;2022-10-17T04:02:50;9.87;;;7.70;;
15155;SDS011;7678;50.058;8.306;2022-10-17T04:05:18;10.00;;;7.80;;
15155;SDS011;7678;50.058;8.306;2022-10-17T04:07:46;9.13;;;7.90;;
15155;SDS011;7678;50.058;8.306;2022-10-17T04:10:15;8.10;;;7.27;;
15155;SDS011;7678;50.058;8.306;2022-10-17T04:12:45;10.53;;;6.83;;
15155;SDS011;7678;50.058;8.306;2022-10-17T04:15:13;10.70;;;7.20;;
15155;SDS011;7678;50.058;8.306;2022-10-17T04:17:41;9.90;;;7.30;;
15155;SDS011;7678;50.058;8.306;2022-10-17T04:20:09;11.20;;;7.27;;
15155;SDS011;7678;50.058;8.306;2022-10-17T04:22:37;12.43;;;7.07;;
15155;SDS011;7678;50.058;8.306;2022-10-17T04:25:05;10.47;;;7.57;;
15155;SDS011;7678;50.058;8.306;2022-10-17T04:27:33;11.60;;;7.00;;
15155;SDS011;7678;50.058;8.306;2022-10-17T04:30:03;11.37;;;7.60;;
15155;SDS011;7678;50.058;8.306;2022-10-17T04:32:34;12.63;;;7.80;;
15155;SDS011;7678;50.058;8.306;2022-10-17T04:35:03;8.53;;;6.70;;
15155;SDS011;7678;50.058;8.306;2022-10-17T04:37:32;9.80;;;7.53;;
15155;SDS011;7678;50.058;8.306;2022-10-17T04:40:00;7.87;;;7.07;;
15155;SDS011;7678;50.058;8.306;2022-10-17T04:42:28;10.00;;;6.90;;
15155;SDS011;7678;50.058;8.306;2022-10-17T04:44:57;8.00;;;7.20;;
15155;SDS011;7678;50.058;8.306;2022-10-17T04:47:26;9.73;;;6.80;;
15155;SDS011;7678;50.058;8.306;2022-10-17T04:49:54;10.57;;;7.33;;
15155;SDS011;7678;50.058;8.306;2022-10-17T04:52:22;9.10;;;7.27;;
15155;SDS011;7678;50.058;8.306;2022-10-17T04:54:52;7.70;;;6.40;;
15155;SDS011;7678;50.058;8.306;2022-10-17T04:57:20;11.07;;;6.63;;
15155;SDS011;7678;50.058;8.306;2022-10-17T04:59:49;7.93;;;6.73;;
15155;SDS011;7678;50.058;8.306;2022-10-17T05:02:17;9.03;;;6.57;;
15155;SDS011;7678;50.058;8.306;2022-10-17T05:04:46;8.80;;;7.37;;
15155;SDS011;7678;50.058;8.306;2022-10-17T05:07:15;10.43;;;7.43;;
15155;SDS011;7678;50.058;8.306;2022-10-17T05:09:44;9.97;;;8.47;;
15155;SDS011;7678;50.058;8.306;2022-10-17T05:12:12;16.07;;;8.90;;
15155;SDS011;7678;50.058;8.306;2022-10-17T05:14:41;12.37;;;9.20;;
15155;SDS011;7678;50.058;8.306;2022-10-17T05:17:10;13.03;;;10.13;;
15155;SDS011;7678;50.058;8.306;2022-10-17T05:19:38;16.20;;;9.70;;
15155;SDS011;7678;50.058;8.306;2022-10-17T05:22:08;10.00;;;8.60;;
15155;SDS011;7678;50.058;8.306;2022-10-17T05:24:36;12.67;;;10.50;;
15155;SDS011;7678;50.058;8.306;2022-10-17T05:27:04;14.70;;;13.10;;
15155;SDS011;7678;50.058;8.306;2022-10-17T05:29:33;13.17;;;10.57;;
15155;SDS011;7678;50.058;8.306;2022-10-17T05:32:01;14.93;;;10.13;;
15155;SDS011;7678;50.058;8.306;2022-10-17T05:34:32;13.90;;;8.80;;
15155;SDS011;7678;50.058;8.306;2022-10-17T05:37:02;12.23;;;8.20;;
15155;SDS011;7678;50.058;8.306;2022-10-17T05:39:32;8.40;;;7.37;;
15155;SDS011;7678;50.058;8.306;2022-10-17T05:42:00;11.03;;;7.60;;
15155;SDS011;7678;50.058;8.306;2022-10-17T05:44:28;10.53;;;7.43;;
15155;SDS011;7678;50.058;8.306;2022-10-17T05:46:56;10.77;;;8.60;;
15155;SDS011;7678;50.058;8.306;2022-10-17T05:49:25;23.87;;;11.03;;
15155;SDS011;7678;50.058;8.306;2022-10-17T05:52:13;15.53;;;11.17;;
15155;SDS011;7678;50.058;8.306;2022-10-17T05:54:44;14.07;;;12.03;;
15155;SDS011;7678;50.058;8.306;2022-10-17T05:57:12;15.23;;;11.47;;
15155;SDS011;7678;50.058;8.306;2022-10-17T05:59:40;15.47;;;11.77;;
15155;SDS011;7678;50.058;8.306;2022-10-17T06:02:08;13.27;;;10.63;;
15155;SDS011;7678;50.058;8.306;2022-10-17T06:04:37;13.87;;;9.90;;
15155;SDS011;7678;50.058;8.306;2022-10-17T06:07:10;13.47;;;10.93;;
15155;SDS011;7678;50.058;8.306;2022-10-17T06:09:39;17.90;;;12.43;;
15155;SDS011;7678;50.058;8.306;2022-10-17T06:12:08;10.67;;;8.83;;
15155;SDS011;7678;50.058;8.306;2022-10-17T06:14:36;11.27;;;9.13;;
15155;SDS011;7678;50.058;8.306;2022-10-17T06:17:05;12.93;;;10.10;;
15155;SDS011;7678;50.058;8.306;2022-10-17T06:19:40;11.67;;;8.77;;
15155;SDS011;7678;50.058;8.306;2022-10-17T06:22:10;12.37;;;8.63;;
15155;SDS011;7678;50.058;8.306;2022-10-17T06:24:38;13.10;;;9.20;;
15155;SDS011;7678;50.058;8.306;2022-10-17T06:27:08;13.77;;;10.53;;
15155;SDS011;7678;50.058;8.306;2022-10-17T06:29:37;14.50;;;10.93;;
15155;SDS011;7678;50.058;8.306;2022-10-17T06:32:06;13.80;;;9.90;;
15155;SDS011;7678;50.058;8.306;2022-10-17T06:34:40;12.43;;;10.07;;
15155;SDS011;7678;50.058;8.306;2022-10-17T06:37:08;16.67;;;10.53;;
15155;SDS011;7678;50.058;8.306;2022-10-17T06:39:36;15.37;;;11.30;;
15155;SDS011;7678;50.058;8.306;2022-10-17T06:42:04;14.47;;;11.40;;
15155;SDS011;7678;50.058;8.306;2022-10-17T06:44:35;14.17;;;11.37;;
15155;SDS011;7678;50.058;8.306;2022-10-17T06:47:05;13.87;;;11.17;;
15155;SDS011;7678;50.058;8.306;2022-10-17T06:49:33;14.40;;;10.67;;
15155;SDS011;7678;50.058;8.306;2022-10-17T06:52:01;12.77;;;10.10;;
15155;SDS011;7678;50.058;8.306;2022-10-17T06:54:29;12.67;;;9.83;;
15155;SDS011;7678;50.058;8.306;2022-10-17T06:56:58;11.93;;;10.10;;
15155;SDS011;7678;50.058;8.306;2022-10-17T06:59:26;13.63;;;10.00;;
15155;SDS011;7678;50.058;8.306;2022-10-17T07:01:56;16.87;;;10.87;;
15155;SDS011;7678;50.058;8.306;2022-10-17T07:04:27;13.87;;;10.13;;
15155;SDS011;7678;50.058;8.306;2022-10-17T07:06:55;17.10;;;10.90;;
15155;SDS011;7678;50.058;8.306;2022-10-17T07:09:29;18.13;;;10.53;;
15155;SDS011;7678;50.058;8.306;2022-10-17T07:11:58;19.53;;;10.97;;
15155;SDS011;7678;50.058;8.306;2022-10-17T07:14:26;12.40;;;10.13;;
15155;SDS011;7678;50.058;8.306;2022-10-17T07:16:59;15.13;;;10.63;;
15155;SDS011;7678;50.058;8.306;2022-10-17T07:19:27;15.07;;;11.33;;
15155;SDS011;7678;50.058;8.306;2022-10-17T07:21:55;19.03;;;12.10;;
15155;SDS011;7678;50.058;8.306;2022-10-17T07:24:23;14.57;;;11.20;;
15155;SDS011;7678;50.058;8.306;2022-10-17T07:26:52;19.40;;;12.73;;
15155;SDS011;7678;50.058;8.306;2022-10-17T07:29:20;15.87;;;11.40;;
15155;SDS011;7678;50.058;8.306;2022-10-17T07:31:48;14.30;;;11.17;;
15155;SDS011;7678;50.058;8.306;2022-10-17T07:34:18;14.73;;;11.07;;
15155;SDS011;7678;50.058;8.306;2022-10-17T07:36:47;13.67;;;10.57;;
15155;SDS011;7678;50.058;8.306;2022-10-17T07:39:15;12.27;;;10.63;;
15155;SDS011;7678;50.058;8.306;2022-10-17T07:41:43;19.87;;;12.17;;
15155;SDS011;7678;50.058;8.306;2022-10-17T07:44:12;16.03;;;10.60;;
15155;SDS011;7678;50.058;8.306;2022-10-17T07:46:40;13.23;;;9.43;;
15155;SDS011;7678;50.058;8.306;2022-10-17T07:49:09;13.83;;;10.33;;
15155;SDS011;7678;50.058;8.306;2022-10-17T07:51:38;15.40;;;9.83;;
15155;SDS011;7678;50.058;8.306;2022-10-17T07:54:06;14.63;;;10.03;;
15155;SDS011;7678;50.058;8.306;2022-10-17T07:56:34;16.60;;;9.87;;
15155;SDS011;7678;50.058;8.306;2022-10-17T07:59:02;10.53;;;8.97;;
15155;SDS011;7678;50.058;8.306;2022-10-17T08:01:34;10.37;;;7.93;;
15155;SDS011;7678;50.058;8.306;2022-10-17T08:04:03;16.07;;;8.80;;
15155;SDS011;7678;50.058;8.306;2022-10-17T08:06:31;10.23;;;8.67;;
15155;SDS011;7678;50.058;8.306;2022-10-17T08:09:01;16.60;;;9.57;;
15155;SDS011;7678;50.058;8.306;2022-10-17T08:11:30;13.33;;;7.93;;
15155;SDS011;7678;50.058;8.306;2022-10-17T08:13:58;10.93;;;7.90;;
15155;SDS011;7678;50.058;8.306;2022-10-17T08:16:26;15.07;;;8.23;;
15155;SDS011;7678;50.058;8.306;2022-10-17T08:18:54;11.37;;;7.90;;
15155;SDS011;7678;50.058;8.306;2022-10-17T08:21:22;10.50;;;7.93;;
15155;SDS011;7678;50.058;8.306;2022-10-17T08:23:50;14.47;;;8.00;;
15155;SDS011;7678;50.058;8.306;2022-10-17T08:26:20;11.90;;;8.07;;
15155;SDS011;7678;50.058;8.306;2022-10-17T08:28:48;9.63;;;7.73;;
15155;SDS011;7678;50.058;8.306;2022-10-17T08:31:17;11.53;;;7.30;;
15155;SDS011;7678;50.058;8.306;2022-10-17T08:33:45;10.83;;;7.50;;
15155;SDS011;7678;50.058;8.306;2022-10-17T08:36:15;8.33;;;6.83;;
15155;SDS011;7678;50.058;8.306;2022-10-17T08:38:44;13.07;;;6.70;;
15155;SDS011;7678;50.058;8.306;2022-10-17T08:41:21;12.97;;;6.63;;
15155;SDS011;7678;50.058;8.306;2022-10-17T08:44:08;8.67;;;6.70;;
15155;SDS011;7678;50.058;8.306;2022-10-17T08:46:46;9.73;;;6.10;;
15155;SDS011;7678;50.058;8.306;2022-10-17T08:49:18;8.37;;;6.10;;
15155;SDS011;7678;50.058;8.306;2022-10-17T08:52:05;10.67;;;6.17;;
15155;SDS011;7678;50.058;8.306;2022-10-17T08:54:42;8.93;;;7.00;;
15155;SDS011;7678;50.058;8.306;2022-10-17T08:57:14;11.27;;;6.23;;
15155;SDS011;7678;50.058;8.306;2022-10-17T08:59:43;13.47;;;6.43;;
15155;SDS011;7678;50.058;8.306;2022-10-17T09:02:23;6.83;;;5.67;;
15155;SDS011;7678;50.058;8.306;2022-10-17T09:05:18;6.47;;;5.40;;
15155;SDS011;7678;50.058;8.306;2022-10-17T09:07:58;10.80;;;5.80;;
15155;SDS011;7678;50.058;8.306;2022-10-17T09:10:36;7.27;;;5.83;;
15155;SDS011;7678;50.058;8.306;2022-10-17T09:13:21;11.00;;;5.80;;
15155;SDS011;7678;50.058;8.306;2022-10-17T09:18:57;9.03;;;4.87;;
15155;SDS011;7678;50.058;8.306;2022-10-17T09:21:32;12.40;;;5.00;;
15155;SDS011;7678;50.058;8.306;2022-10-17T09:24:09;8.77;;;5.33;;
15155;SDS011;7678;50.058;8.306;2022-10-17T09:26:41;9.07;;;5.40;;
15155;SDS011;7678;50.058;8.306;2022-10-17T09:29:16;8.70;;;5.10;;
15155;SDS011;7678;50.058;8.306;2022-10-17T09:31:48;8.33;;;5.57;;
15155;SDS011;7678;50.058;8.306;2022-10-17T09:34:28;6.57;;;4.87;;
15155;SDS011;7678;50.058;8.306;2022-10-17T09:36:58;7.10;;;5.20;;
15155;SDS011;7678;50.058;8.306;2022-10-17T09:39:27;8.40;;;4.70;;
15155;SDS011;7678;50.058;8.306;2022-10-17T09:41:58;7.20;;;4.90;;
15155;SDS011;7678;50.058;8.306;2022-10-17T09:44:30;7.50;;;4.57;;
15155;SDS011;7678;50.058;8.306;2022-10-17T09:47:11;10.10;;;4.37;;
15155;SDS011;7678;50.058;8.306;2022-10-17T09:49:48;7.37;;;3.70;;
15155;SDS011;7678;50.058;8.306;2022-10-17T09:52:17;8.40;;;4.47;;
15155;SDS011;7678;50.058;8.306;2022-10-17T09:54:47;7.03;;;4.00;;
15155;SDS011;7678;50.058;8.306;2022-10-17T09:57:17;7.30;;;4.27;;
15155;SDS011;7678;50.058;8.306;2022-10-17T09:59:56;7.50;;;4.33;;
15155;SDS011;7678;50.058;8.306;2022-10-17T10:02:27;4.80;;;3.60;;
15155;SDS011;7678;50.058;8.306;2022-10-17T10:04:57;3.63;;;3.30;;
15155;SDS011;7678;50.058;8.306;2022-10-17T10:07:32;5.80;;;3.73;;
15155;SDS011;7678;50.058;8.306;2022-10-17T10:10:02;5.43;;;3.87;;
15155;SDS011;7678;50.058;8.306;2022-10-17T10:12:33;5.60;;;3.93;;
15155;SDS011;7678;50.058;8.306;2022-10-17T10:15:09;6.97;;;4.30;;
15155;SDS011;7678;50.058;8.306;2022-10-17T10:17:57;7.00;;;3.83;;
15155;SDS011;7678;50.058;8.306;2022-10-17T10:20:29;5.90;;;4.10;;
15155;SDS011;7678;50.058;8.306;2022-10-17T10:23:03;7.23;;;4.00;;
15155;SDS011;7678;50.058;8.306;2022-10-17T10:25:33;8.03;;;3.77;;
15155;SDS011;7678;50.058;8.306;2022-10-17T10:28:01;5.03;;;4.38;;
15155;SDS011;7678;50.058;8.306;2022-10-17T10:30:38;6.20;;;3.60;;
15155;SDS011;7678;50.058;8.306;2022-10-17T10:33:09;5.20;;;3.67;;
15155;SDS011;7678;50.058;8.306;2022-10-17T10:35:38;12.63;;;4.23;;
15155;SDS011;7678;50.058;8.306;2022-10-17T10:38:07;4.67;;;3.27;;
15155;SDS011;7678;50.058;8.306;2022-10-17T10:40:38;4.37;;;3.60;;
15155;SDS011;7678;50.058;8.306;2022-10-17T10:43:19;8.40;;;4.20;;
15155;SDS011;7678;50.058;8.306;2022-10-17T10:45:51;9.13;;;4.00;;
15155;SDS011;7678;50.058;8.306;2022-10-17T10:48:20;9.50;;;3.60;;
15155;SDS011;7678;50.058;8.306;2022-10-17T10:50:50;6.47;;;3.33;;
15155;SDS011;7678;50.058;8.306;2022-10-17T10:53:33;8.43;;;4.00;;
15155;SDS011;7678;50.058;8.306;2022-10-17T10:56:10;10.37;;;3.57;;
15155;SDS011;7678;50.058;8.306;2022-10-17T10:58:47;4.83;;;3.43;;
15155;SDS011;7678;50.058;8.306;2022-10-17T11:01:20;5.97;;;3.57;;
15155;SDS011;7678;50.058;8.306;2022-10-17T11:03:58;4.80;;;3.33;;
15155;SDS011;7678;50.058;8.306;2022-10-17T11:06:44;5.60;;;3.33;;
15155;SDS011;7678;50.058;8.306;2022-10-17T11:09:19;10.17;;;3.60;;
15155;SDS011;7678;50.058;8.306;2022-10-17T11:11:59;3.72;;;3.30;;
15155;SDS011;7678;50.058;8.306;2022-10-17T11:14:37;5.37;;;3.20;;
15155;SDS011;7678;50.058;8.306;2022-10-17T11:17:14;10.33;;;3.67;;
15155;SDS011;7678;50.058;8.306;2022-10-17T11:19:49;4.90;;;3.20;;
15155;SDS011;7678;50.058;8.306;2022-10-17T11:22:26;8.40;;;3.83;;
15155;SDS011;7678;50.058;8.306;2022-10-17T11:24:58;10.50;;;3.80;;
15155;SDS011;7678;50.058;8.306;2022-10-17T11:27:31;3.83;;;3.10;;
15155;SDS011;7678;50.058;8.306;2022-10-17T11:30:00;8.50;;;3.80;;
15155;SDS011;7678;50.058;8.306;2022-10-17T11:32:35;6.20;;;3.40;;
15155;SDS011;7678;50.058;8.306;2022-10-17T11:35:12;6.47;;;3.23;;
15155;SDS011;7678;50.058;8.306;2022-10-17T11:37:45;4.30;;;2.93;;
15155;SDS011;7678;50.058;8.306;2022-10-17T11:40:18;6.03;;;3.37;;
15155;SDS011;7678;50.058;8.306;2022-10-17T11:42:53;8.83;;;3.70;;
15155;SDS011;7678;50.058;8.306;2022-10-17T11:45:26;5.67;;;3.27;;
15155;SDS011;7678;50.058;8.306;2022-10-17T11:47:59;10.13;;;4.07;;
15155;SDS011;7678;50.058;8.306;2022-10-17T11:50:32;8.73;;;3.70;;
15155;SDS011;7678;50.058;8.306;2022-10-17T11:53:22;8.63;;;3.37;;
15155;SDS011;7678;50.058;8.306;2022-10-17T11:55:53;10.27;;;3.93;;
15155;SDS011;7678;50.058;8.306;2022-10-17T11:58:31;11.77;;;3.80;;
15155;SDS011;7678;50.058;8.306;2022-10-17T12:01:07;7.40;;;3.33;;
15155;SDS011;7678;50.058;8.306;2022-10-17T12:03:54;12.43;;;3.90;;
15155;SDS011;7678;50.058;8.306;2022-10-17T12:06:38;8.93;;;3.60;;
15155;SDS011;7678;50.058;8.306;2022-10-17T12:09:16;6.20;;;3.13;;
15155;SDS011;7678;50.058;8.306;2022-10-17T12:11:50;6.93;;;3.30;;
15155;SDS011;7678;50.058;8.306;2022-10-17T12:20:19;6.30;;;3.03;;
15155;SDS011;7678;50.058;8.306;2022-10-17T12:23:19;6.47;;;2.60;;
15155;SDS011;7678;50.058;8.306;2022-10-17T12:25:53;5.77;;;3.03;;
15155;SDS011;7678;50.058;8.306;2022-10-17T12:28:29;3.90;;;2.67;;
15155;SDS011;7678;50.058;8.306;2022-10-17T12:30:59;6.33;;;2.70;;
15155;SDS011;7678;50.058;8.306;2022-10-17T12:33:32;8.77;;;2.60;;
15155;SDS011;7678;50.058;8.306;2022-10-17T12:42:29;7.00;;;2.90;;
15155;SDS011;7678;50.058;8.306;2022-10-17T12:44:58;9.80;;;2.60;;
15155;SDS011;7678;50.058;8.306;2022-10-17T12:47:27;6.80;;;2.47;;
15155;SDS011;7678;50.058;8.306;2022-10-17T12:53:06;6.13;;;2.33;;
15155;SDS011;7678;50.058;8.306;2022-10-17T12:55:45;8.83;;;3.10;;
15155;SDS011;7678;50.058;8.306;2022-10-17T12:58:17;7.67;;;3.77;;
15155;SDS011;7678;50.058;8.306;2022-10-17T13:00:46;5.63;;;3.00;;
15155;SDS011;7678;50.058;8.306;2022-10-17T13:03:40;4.47;;;2.50;;
15155;SDS011;7678;50.058;8.306;2022-10-17T13:06:11;8.80;;;2.40;;
15155;SDS011;7678;50.058;8.306;2022-10-17T13:08:43;6.87;;;2.37;;
15155;SDS011;7678;50.058;8.306;2022-10-17T13:11:22;6.50;;;2.37;;
15155;SDS011;7678;50.058;8.306;2022-10-17T13:13:54;4.40;;;2.03;;
15155;SDS011;7678;50.058;8.306;2022-10-17T13:16:27;5.60;;;2.27;;
15155;SDS011;7678;50.058;8.306;2022-10-17T13:18:56;7.57;;;2.20;;
15155;SDS011;7678;50.058;8.306;2022-10-17T13:21:25;5.47;;;2.37;;
15155;SDS011;7678;50.058;8.306;2022-10-17T13:23:54;4.97;;;2.30;;
15155;SDS011;7678;50.058;8.306;2022-10-17T13:26:24;6.00;;;2.43;;
15155;SDS011;7678;50.058;8.306;2022-10-17T13:29:00;7.80;;;2.53;;
15155;SDS011;7678;50.058;8.306;2022-10-17T13:31:30;8.37;;;2.70;;
15155;SDS011;7678;50.058;8.306;2022-10-17T13:34:00;3.97;;;2.60;;
15155;SDS011;7678;50.058;8.306;2022-10-17T13:36:30;8.20;;;2.67;;
15155;SDS011;7678;50.058;8.306;2022-10-17T13:38:59;3.60;;;2.27;;
15155;SDS011;7678;50.058;8.306;2022-10-17T13:41:39;5.83;;;2.00;;
15155;SDS011;7678;50.058;8.306;2022-10-17T13:44:10;5.03;;;2.50;;
15155;SDS011;7678;50.058;8.306;2022-10-17T13:46:40;5.03;;;2.40;;
15155;SDS011;7678;50.058;8.306;2022-10-17T13:49:10;6.83;;;2.40;;
15155;SDS011;7678;50.058;8.306;2022-10-17T13:51:44;6.03;;;2.40;;
15155;SDS011;7678;50.058;8.306;2022-10-17T13:54:33;5.43;;;2.37;;
15155;SDS011;7678;50.058;8.306;2022-10-17T13:57:15;7.03;;;2.10;;
15155;SDS011;7678;50.058;8.306;2022-10-17T13:59:45;8.00;;;2.60;;
15155;SDS011;7678;50.058;8.306;2022-10-17T14:02:19;4.30;;;2.23;;
15155;SDS011;7678;50.058;8.306;2022-10-17T14:04:58;5.73;;;2.50;;
15155;SDS011;7678;50.058;8.306;2022-10-17T14:07:48;4.10;;;2.50;;
15155;SDS011;7678;50.058;8.306;2022-10-17T14:10:38;6.77;;;2.60;;
15155;SDS011;7678;50.058;8.306;2022-10-17T14:13:19;5.70;;;2.83;;
15155;SDS011;7678;50.058;8.306;2022-10-17T14:15:49;5.70;;;2.20;;
15155;SDS011;7678;50.058;8.306;2022-10-17T14:18:19;5.03;;;2.80;;
15155;SDS011;7678;50.058;8.306;2022-10-17T14:20:51;8.87;;;2.57;;
15155;SDS011;7678;50.058;8.306;2022-10-17T14:23:40;8.87;;;2.87;;
15155;SDS011;7678;50.058;8.306;2022-10-17T14:26:13;5.30;;;2.43;;
15155;SDS011;7678;50.058;8.306;2022-10-17T14:28:45;8.93;;;2.60;;
15155;SDS011;7678;50.058;8.306;2022-10-17T14:31:22;5.47;;;2.37;;
15155;SDS011;7678;50.058;8.306;2022-10-17T14:33:55;6.97;;;2.30;;
15155;SDS011;7678;50.058;8.306;2022-10-17T14:36:33;7.53;;;2.50;;
15155;SDS011;7678;50.058;8.306;2022-10-17T14:42:37;12.03;;;2.70;;
15155;SDS011;7678;50.058;8.306;2022-10-17T14:45:11;6.20;;;2.83;;
15155;SDS011;7678;50.058;8.306;2022-10-17T14:47:47;9.53;;;2.70;;
15155;SDS011;7678;50.058;8.306;2022-10-17T14:50:19;6.43;;;2.50;;
15155;SDS011;7678;50.058;8.306;2022-10-17T14:52:58;6.30;;;2.90;;
15155;SDS011;7678;50.058;8.306;2022-10-17T14:55:28;4.70;;;2.50;;
15155;SDS011;7678;50.058;8.306;2022-10-17T14:57:57;7.03;;;2.97;;
15155;SDS011;7678;50.058;8.306;2022-10-17T15:00:26;8.43;;;2.70;;
15155;SDS011;7678;50.058;8.306;2022-10-17T15:02:55;6.93;;;2.40;;
15155;SDS011;7678;50.058;8.306;2022-10-17T15:05:23;7.93;;;2.57;;
15155;SDS011;7678;50.058;8.306;2022-10-17T15:07:51;5.63;;;2.57;;
15155;SDS011;7678;50.058;8.306;2022-10-17T15:10:24;3.93;;;2.57;;
15155;SDS011;7678;50.058;8.306;2022-10-17T15:12:58;8.20;;;2.73;;
15155;SDS011;7678;50.058;8.306;2022-10-17T15:15:47;10.10;;;2.80;;
15155;SDS011;7678;50.058;8.306;2022-10-17T15:18:17;6.37;;;2.60;;
15155;SDS011;7678;50.058;8.306;2022-10-17T15:20:45;7.83;;;2.87;;
15155;SDS011;7678;50.058;8.306;2022-10-17T15:23:29;5.83;;;2.60;;
15155;SDS011;7678;50.058;8.306;2022-10-17T15:25:57;8.97;;;3.10;;
15155;SDS011;7678;50.058;8.306;2022-10-17T15:28:25;8.97;;;3.77;;
15155;SDS011;7678;50.058;8.306;2022-10-17T15:30:55;4.47;;;2.90;;
15155;SDS011;7678;50.058;8.306;2022-10-17T15:33:23;8.70;;;3.20;;
15155;SDS011;7678;50.058;8.306;2022-10-17T15:35:51;4.80;;;2.63;;
15155;SDS011;7678;50.058;8.306;2022-10-17T15:38:19;8.67;;;3.20;;
15155;SDS011;7678;50.058;8.306;2022-10-17T15:40:47;7.57;;;2.80;;
15155;SDS011;7678;50.058;8.306;2022-10-17T15:43:17;6.63;;;2.60;;
15155;SDS011;7678;50.058;8.306;2022-10-17T15:45:45;4.03;;;2.50;;
15155;SDS011;7678;50.058;8.306;2022-10-17T15:48:16;5.97;;;2.57;;
15155;SDS011;7678;50.058;8.306;2022-10-17T15:50:46;4.80;;;2.37;;